sensor_id;sensor_type;location;lat;lon;timestamp;P1;durP1;ratioP1;P2;durP2;ratioP2
11957;SDS011;6039;52.576;13.348;2022-12-18T00:04:50;14.47;;;6.17;;
11957;SDS011;6039;52.576;13.348;2022-12-18T00:09:56;11.40;;;4.87;;
11957;SDS011;6039;52.576;13.348;2022-12-18T00:15:00;13.63;;;5.33;;
11957;SDS011;6039;52.576;13.348;2022-12-18T00:20:05;16.43;;;6.03;;
11957;SDS011;6039;52.576;13.348;2022-12-18T00:25:13;22.00;;;6.57;;
11957;SDS011;6039;52.576;13.348;2022-12-18T00:30:17;14.87;;;6.10;;
11957;SDS011;6039;52.576;13.348;2022-12-18T00:35:21;19.20;;;5.63;;
11957;SDS011;6039;52.576;13.348;2022-12-18T00:40:28;19.93;;;6.03;;
11957;SDS011;6039;52.576;13.348;2022-12-18T00:45:32;12.80;;;5.20;;
11957;SDS011;6039;52.576;13.348;2022-12-18T00:50:36;16.20;;;5.60;;
11957;SDS011;6039;52.576;13.348;2022-12-18T00:55:42;15.27;;;5.70;;
11957;SDS011;6039;52.576;13.348;2022-12-18T01:00:47;12.13;;;4.53;;
11957;SDS011;6039;52.576;13.348;2022-12-18T01:05:50;9.00;;;3.73;;
11957;SDS011;6039;52.576;13.348;2022-12-18T01:10:57;16.53;;;5.87;;
11957;SDS011;6039;52.576;13.348;2022-12-18T01:16:01;11.10;;;4.27;;
11957;SDS011;6039;52.576;13.348;2022-12-18T01:21:06;10.27;;;4.70;;
11957;SDS011;6039;52.576;13.348;2022-12-18T01:26:14;11.57;;;5.53;;
11957;SDS011;6039;52.576;13.348;2022-12-18T01:31:19;10.93;;;4.90;;
11957;SDS011;6039;52.576;13.348;2022-12-18T01:36:24;9.93;;;4.43;;
11957;SDS011;6039;52.576;13.348;2022-12-18T01:41:32;21.07;;;6.47;;
11957;SDS011;6039;52.576;13.348;2022-12-18T01:46:49;16.27;;;5.93;;
11957;SDS011;6039;52.576;13.348;2022-12-18T01:51:53;10.20;;;4.53;;
11957;SDS011;6039;52.576;13.348;2022-12-18T01:56:59;11.53;;;5.20;;
11957;SDS011;6039;52.576;13.348;2022-12-18T02:02:04;13.67;;;5.23;;
11957;SDS011;6039;52.576;13.348;2022-12-18T02:07:10;13.03;;;5.83;;
11957;SDS011;6039;52.576;13.348;2022-12-18T02:12:22;12.40;;;4.97;;
11957;SDS011;6039;52.576;13.348;2022-12-18T02:17:28;9.60;;;4.47;;
11957;SDS011;6039;52.576;13.348;2022-12-18T02:22:38;14.17;;;5.00;;
11957;SDS011;6039;52.576;13.348;2022-12-18T02:27:49;14.10;;;5.53;;
11957;SDS011;6039;52.576;13.348;2022-12-18T02:32:54;12.47;;;6.03;;
11957;SDS011;6039;52.576;13.348;2022-12-18T02:37:59;15.27;;;6.67;;
11957;SDS011;6039;52.576;13.348;2022-12-18T02:43:10;16.27;;;7.20;;
11957;SDS011;6039;52.576;13.348;2022-12-18T02:48:16;11.77;;;5.03;;
11957;SDS011;6039;52.576;13.348;2022-12-18T02:53:22;12.23;;;4.17;;
11957;SDS011;6039;52.576;13.348;2022-12-18T02:58:33;12.03;;;5.30;;
11957;SDS011;6039;52.576;13.348;2022-12-18T03:03:44;10.57;;;4.90;;
11957;SDS011;6039;52.576;13.348;2022-12-18T03:08:51;9.13;;;4.50;;
11957;SDS011;6039;52.576;13.348;2022-12-18T03:14:02;12.03;;;4.47;;
11957;SDS011;6039;52.576;13.348;2022-12-18T03:19:08;12.40;;;4.70;;
11957;SDS011;6039;52.576;13.348;2022-12-18T03:24:14;13.00;;;5.77;;
11957;SDS011;6039;52.576;13.348;2022-12-18T03:29:22;12.80;;;5.87;;
11957;SDS011;6039;52.576;13.348;2022-12-18T03:34:29;12.00;;;4.57;;
11957;SDS011;6039;52.576;13.348;2022-12-18T03:39:35;12.10;;;5.00;;
11957;SDS011;6039;52.576;13.348;2022-12-18T03:44:43;12.00;;;5.87;;
11957;SDS011;6039;52.576;13.348;2022-12-18T03:49:53;17.30;;;6.43;;
11957;SDS011;6039;52.576;13.348;2022-12-18T03:55:00;13.73;;;4.90;;
11957;SDS011;6039;52.576;13.348;2022-12-18T04:00:09;16.77;;;7.13;;
11957;SDS011;6039;52.576;13.348;2022-12-18T04:05:15;15.43;;;5.70;;
11957;SDS011;6039;52.576;13.348;2022-12-18T04:10:19;18.10;;;7.07;;
11957;SDS011;6039;52.576;13.348;2022-12-18T04:15:26;18.80;;;5.60;;
11957;SDS011;6039;52.576;13.348;2022-12-18T04:20:30;17.17;;;5.90;;
11957;SDS011;6039;52.576;13.348;2022-12-18T04:25:34;16.53;;;5.90;;
11957;SDS011;6039;52.576;13.348;2022-12-18T04:30:40;17.33;;;6.10;;
11957;SDS011;6039;52.576;13.348;2022-12-18T04:35:44;12.33;;;5.83;;
11957;SDS011;6039;52.576;13.348;2022-12-18T04:40:48;19.27;;;6.47;;
11957;SDS011;6039;52.576;13.348;2022-12-18T04:46:00;14.70;;;6.53;;
11957;SDS011;6039;52.576;13.348;2022-12-18T04:51:05;18.23;;;6.03;;
11957;SDS011;6039;52.576;13.348;2022-12-18T04:56:09;15.73;;;6.57;;
11957;SDS011;6039;52.576;13.348;2022-12-18T05:01:17;20.47;;;7.07;;
11957;SDS011;6039;52.576;13.348;2022-12-18T05:06:21;14.93;;;5.10;;
11957;SDS011;6039;52.576;13.348;2022-12-18T05:11:25;16.40;;;6.40;;
11957;SDS011;6039;52.576;13.348;2022-12-18T05:16:32;23.23;;;6.40;;
11957;SDS011;6039;52.576;13.348;2022-12-18T05:21:36;13.70;;;6.60;;
11957;SDS011;6039;52.576;13.348;2022-12-18T05:26:40;12.70;;;5.07;;
11957;SDS011;6039;52.576;13.348;2022-12-18T05:31:46;19.07;;;6.23;;
11957;SDS011;6039;52.576;13.348;2022-12-18T05:36:50;17.07;;;6.23;;
11957;SDS011;6039;52.576;13.348;2022-12-18T05:41:54;11.93;;;4.53;;
11957;SDS011;6039;52.576;13.348;2022-12-18T05:47:01;10.27;;;4.57;;
11957;SDS011;6039;52.576;13.348;2022-12-18T05:52:05;19.30;;;5.63;;
11957;SDS011;6039;52.576;13.348;2022-12-18T05:57:09;11.23;;;4.97;;
11957;SDS011;6039;52.576;13.348;2022-12-18T06:02:15;13.93;;;4.47;;
11957;SDS011;6039;52.576;13.348;2022-12-18T06:07:20;9.50;;;5.17;;
11957;SDS011;6039;52.576;13.348;2022-12-18T06:12:24;10.73;;;5.17;;
11957;SDS011;6039;52.576;13.348;2022-12-18T06:17:31;9.60;;;4.57;;
11957;SDS011;6039;52.576;13.348;2022-12-18T06:22:35;12.43;;;5.43;;
11957;SDS011;6039;52.576;13.348;2022-12-18T06:27:40;16.23;;;5.47;;
11957;SDS011;6039;52.576;13.348;2022-12-18T06:32:46;14.67;;;6.13;;
11957;SDS011;6039;52.576;13.348;2022-12-18T06:37:51;18.93;;;5.90;;
11957;SDS011;6039;52.576;13.348;2022-12-18T06:42:55;17.00;;;4.73;;
11957;SDS011;6039;52.576;13.348;2022-12-18T06:48:02;13.07;;;5.13;;
11957;SDS011;6039;52.576;13.348;2022-12-18T06:53:06;19.47;;;6.23;;
11957;SDS011;6039;52.576;13.348;2022-12-18T06:58:10;16.03;;;5.43;;
11957;SDS011;6039;52.576;13.348;2022-12-18T07:03:16;13.27;;;5.97;;
11957;SDS011;6039;52.576;13.348;2022-12-18T07:08:20;11.83;;;5.67;;
11957;SDS011;6039;52.576;13.348;2022-12-18T07:13:24;15.07;;;6.13;;
11957;SDS011;6039;52.576;13.348;2022-12-18T07:18:31;11.67;;;6.10;;
11957;SDS011;6039;52.576;13.348;2022-12-18T07:23:35;14.40;;;5.43;;
11957;SDS011;6039;52.576;13.348;2022-12-18T07:28:40;18.63;;;5.50;;
11957;SDS011;6039;52.576;13.348;2022-12-18T07:33:47;16.93;;;6.43;;
11957;SDS011;6039;52.576;13.348;2022-12-18T07:38:51;17.77;;;6.00;;
11957;SDS011;6039;52.576;13.348;2022-12-18T07:43:56;12.47;;;5.30;;
11957;SDS011;6039;52.576;13.348;2022-12-18T07:49:02;12.80;;;6.00;;
11957;SDS011;6039;52.576;13.348;2022-12-18T07:54:06;17.77;;;6.37;;
11957;SDS011;6039;52.576;13.348;2022-12-18T07:59:10;13.97;;;6.13;;
11957;SDS011;6039;52.576;13.348;2022-12-18T08:04:17;16.97;;;6.20;;
11957;SDS011;6039;52.576;13.348;2022-12-18T08:09:21;13.13;;;5.83;;
11957;SDS011;6039;52.576;13.348;2022-12-18T08:14:25;19.40;;;6.83;;
11957;SDS011;6039;52.576;13.348;2022-12-18T08:19:32;12.40;;;4.93;;
11957;SDS011;6039;52.576;13.348;2022-12-18T08:24:36;10.47;;;5.20;;
11957;SDS011;6039;52.576;13.348;2022-12-18T08:29:40;13.13;;;4.50;;
11957;SDS011;6039;52.576;13.348;2022-12-18T08:34:46;17.97;;;6.03;;
11957;SDS011;6039;52.576;13.348;2022-12-18T08:39:50;11.43;;;5.27;;
11957;SDS011;6039;52.576;13.348;2022-12-18T08:44:54;15.83;;;5.60;;
11957;SDS011;6039;52.576;13.348;2022-12-18T08:50:01;13.20;;;6.17;;
11957;SDS011;6039;52.576;13.348;2022-12-18T08:55:06;13.57;;;5.20;;
11957;SDS011;6039;52.576;13.348;2022-12-18T09:00:12;14.97;;;5.90;;
11957;SDS011;6039;52.576;13.348;2022-12-18T09:05:19;17.83;;;6.27;;
11957;SDS011;6039;52.576;13.348;2022-12-18T09:10:23;14.37;;;5.43;;
11957;SDS011;6039;52.576;13.348;2022-12-18T09:15:27;13.83;;;5.47;;
11957;SDS011;6039;52.576;13.348;2022-12-18T09:20:33;9.53;;;5.03;;
11957;SDS011;6039;52.576;13.348;2022-12-18T09:25:38;16.27;;;6.80;;
11957;SDS011;6039;52.576;13.348;2022-12-18T09:30:42;15.07;;;4.53;;
11957;SDS011;6039;52.576;13.348;2022-12-18T09:35:51;17.53;;;5.40;;
11957;SDS011;6039;52.576;13.348;2022-12-18T09:40:56;16.10;;;6.50;;
11957;SDS011;6039;52.576;13.348;2022-12-18T09:46:03;11.43;;;6.03;;
11957;SDS011;6039;52.576;13.348;2022-12-18T09:51:15;11.17;;;4.97;;
11957;SDS011;6039;52.576;13.348;2022-12-18T09:56:21;18.73;;;6.13;;
11957;SDS011;6039;52.576;13.348;2022-12-18T10:01:27;12.00;;;5.50;;
11957;SDS011;6039;52.576;13.348;2022-12-18T10:06:36;13.57;;;5.70;;
11957;SDS011;6039;52.576;13.348;2022-12-18T10:11:43;13.00;;;5.47;;
11957;SDS011;6039;52.576;13.348;2022-12-18T10:16:57;15.77;;;5.60;;
11957;SDS011;6039;52.576;13.348;2022-12-18T10:22:11;14.60;;;4.73;;
11957;SDS011;6039;52.576;13.348;2022-12-18T10:27:23;17.10;;;7.23;;
11957;SDS011;6039;52.576;13.348;2022-12-18T10:32:28;20.70;;;5.97;;
11957;SDS011;6039;52.576;13.348;2022-12-18T10:37:35;15.33;;;5.60;;
11957;SDS011;6039;52.576;13.348;2022-12-18T10:42:39;14.90;;;5.90;;
11957;SDS011;6039;52.576;13.348;2022-12-18T10:47:44;13.47;;;6.07;;
11957;SDS011;6039;52.576;13.348;2022-12-18T10:52:57;12.83;;;5.60;;
11957;SDS011;6039;52.576;13.348;2022-12-18T10:58:13;19.03;;;7.73;;
11957;SDS011;6039;52.576;13.348;2022-12-18T11:03:30;12.77;;;4.97;;
11957;SDS011;6039;52.576;13.348;2022-12-18T11:08:38;14.60;;;6.20;;
11957;SDS011;6039;52.576;13.348;2022-12-18T11:13:45;10.70;;;5.07;;
11957;SDS011;6039;52.576;13.348;2022-12-18T11:24:28;19.60;;;7.20;;
11957;SDS011;6039;52.576;13.348;2022-12-18T11:29:35;16.47;;;7.00;;
11957;SDS011;6039;52.576;13.348;2022-12-18T11:34:40;16.67;;;6.57;;
11957;SDS011;6039;52.576;13.348;2022-12-18T11:39:49;26.53;;;8.17;;
11957;SDS011;6039;52.576;13.348;2022-12-18T11:44:57;13.03;;;6.37;;
11957;SDS011;6039;52.576;13.348;2022-12-18T11:50:05;16.80;;;6.43;;
11957;SDS011;6039;52.576;13.348;2022-12-18T11:55:19;13.57;;;5.90;;
11957;SDS011;6039;52.576;13.348;2022-12-18T12:00:30;13.23;;;5.50;;
11957;SDS011;6039;52.576;13.348;2022-12-18T12:05:40;20.23;;;6.30;;
11957;SDS011;6039;52.576;13.348;2022-12-18T12:10:56;14.57;;;6.27;;
11957;SDS011;6039;52.576;13.348;2022-12-18T12:16:04;13.03;;;5.90;;
11957;SDS011;6039;52.576;13.348;2022-12-18T12:21:17;17.70;;;6.53;;
11957;SDS011;6039;52.576;13.348;2022-12-18T12:26:28;16.13;;;6.83;;
11957;SDS011;6039;52.576;13.348;2022-12-18T12:31:40;13.80;;;6.27;;
11957;SDS011;6039;52.576;13.348;2022-12-18T12:36:52;13.53;;;5.40;;
11957;SDS011;6039;52.576;13.348;2022-12-18T12:42:08;9.77;;;4.67;;
11957;SDS011;6039;52.576;13.348;2022-12-18T12:47:30;13.93;;;7.00;;
11957;SDS011;6039;52.576;13.348;2022-12-18T12:52:37;17.53;;;6.43;;
11957;SDS011;6039;52.576;13.348;2022-12-18T12:57:48;20.97;;;7.53;;
11957;SDS011;6039;52.576;13.348;2022-12-18T13:02:59;15.57;;;6.93;;
11957;SDS011;6039;52.576;13.348;2022-12-18T13:08:08;18.70;;;7.30;;
11957;SDS011;6039;52.576;13.348;2022-12-18T13:13:15;12.53;;;6.00;;
11957;SDS011;6039;52.576;13.348;2022-12-18T13:18:20;14.57;;;6.93;;
11957;SDS011;6039;52.576;13.348;2022-12-18T13:23:31;15.60;;;6.10;;
11957;SDS011;6039;52.576;13.348;2022-12-18T13:28:52;13.57;;;5.53;;
11957;SDS011;6039;52.576;13.348;2022-12-18T13:34:09;15.73;;;6.80;;
11957;SDS011;6039;52.576;13.348;2022-12-18T13:44:38;14.17;;;6.17;;
11957;SDS011;6039;52.576;13.348;2022-12-18T13:49:44;10.83;;;6.23;;
11957;SDS011;6039;52.576;13.348;2022-12-18T13:54:50;12.40;;;6.37;;
11957;SDS011;6039;52.576;13.348;2022-12-18T13:59:58;15.30;;;6.47;;
11957;SDS011;6039;52.576;13.348;2022-12-18T14:05:21;18.00;;;7.30;;
11957;SDS011;6039;52.576;13.348;2022-12-18T14:10:25;17.40;;;7.83;;
11957;SDS011;6039;52.576;13.348;2022-12-18T14:15:32;15.17;;;6.60;;
11957;SDS011;6039;52.576;13.348;2022-12-18T14:20:39;11.30;;;6.20;;
11957;SDS011;6039;52.576;13.348;2022-12-18T14:25:50;14.40;;;6.30;;
11957;SDS011;6039;52.576;13.348;2022-12-18T14:30:56;11.27;;;6.03;;
11957;SDS011;6039;52.576;13.348;2022-12-18T14:36:01;18.40;;;6.97;;
11957;SDS011;6039;52.576;13.348;2022-12-18T14:41:09;15.07;;;6.83;;
11957;SDS011;6039;52.576;13.348;2022-12-18T14:46:30;16.83;;;7.17;;
11957;SDS011;6039;52.576;13.348;2022-12-18T14:51:37;20.43;;;8.00;;
11957;SDS011;6039;52.576;13.348;2022-12-18T14:56:42;15.60;;;7.97;;
11957;SDS011;6039;52.576;13.348;2022-12-18T15:01:53;16.10;;;7.17;;
11957;SDS011;6039;52.576;13.348;2022-12-18T15:07:05;15.00;;;7.70;;
11957;SDS011;6039;52.576;13.348;2022-12-18T15:12:19;14.97;;;6.33;;
11957;SDS011;6039;52.576;13.348;2022-12-18T15:17:31;16.07;;;7.13;;
11957;SDS011;6039;52.576;13.348;2022-12-18T15:22:36;16.27;;;7.20;;
11957;SDS011;6039;52.576;13.348;2022-12-18T15:27:40;17.77;;;7.93;;
11957;SDS011;6039;52.576;13.348;2022-12-18T15:32:52;13.17;;;6.17;;
11957;SDS011;6039;52.576;13.348;2022-12-18T15:38:19;17.73;;;6.37;;
11957;SDS011;6039;52.576;13.348;2022-12-18T15:43:23;10.40;;;5.60;;
11957;SDS011;6039;52.576;13.348;2022-12-18T15:48:40;12.47;;;6.27;;
11957;SDS011;6039;52.576;13.348;2022-12-18T15:53:45;15.03;;;6.97;;
11957;SDS011;6039;52.576;13.348;2022-12-18T15:58:49;8.90;;;5.50;;
11957;SDS011;6039;52.576;13.348;2022-12-18T16:03:56;14.60;;;6.97;;
11957;SDS011;6039;52.576;13.348;2022-12-18T16:09:00;14.67;;;7.20;;
11957;SDS011;6039;52.576;13.348;2022-12-18T16:14:05;14.70;;;7.23;;
11957;SDS011;6039;52.576;13.348;2022-12-18T16:19:16;14.40;;;6.50;;
11957;SDS011;6039;52.576;13.348;2022-12-18T16:24:21;14.63;;;6.97;;
11957;SDS011;6039;52.576;13.348;2022-12-18T16:29:27;13.07;;;6.03;;
11957;SDS011;6039;52.576;13.348;2022-12-18T16:34:35;13.47;;;6.43;;
11957;SDS011;6039;52.576;13.348;2022-12-18T16:39:39;11.93;;;6.93;;
11957;SDS011;6039;52.576;13.348;2022-12-18T16:44:44;12.70;;;6.53;;
11957;SDS011;6039;52.576;13.348;2022-12-18T16:49:51;19.17;;;8.60;;
11957;SDS011;6039;52.576;13.348;2022-12-18T16:54:55;15.93;;;7.93;;
11957;SDS011;6039;52.576;13.348;2022-12-18T16:59:59;12.27;;;6.43;;
11957;SDS011;6039;52.576;13.348;2022-12-18T17:05:06;18.60;;;7.07;;
11957;SDS011;6039;52.576;13.348;2022-12-18T17:10:10;15.17;;;6.90;;
11957;SDS011;6039;52.576;13.348;2022-12-18T17:15:14;21.17;;;6.73;;
11957;SDS011;6039;52.576;13.348;2022-12-18T17:20:21;12.23;;;6.07;;
11957;SDS011;6039;52.576;13.348;2022-12-18T17:25:25;16.50;;;7.27;;
11957;SDS011;6039;52.576;13.348;2022-12-18T17:30:29;17.30;;;7.17;;
11957;SDS011;6039;52.576;13.348;2022-12-18T17:35:36;24.35;;;13.30;;
11957;SDS011;6039;52.576;13.348;2022-12-18T17:40:40;17.57;;;8.17;;
11957;SDS011;6039;52.576;13.348;2022-12-18T17:45:44;17.20;;;7.27;;
11957;SDS011;6039;52.576;13.348;2022-12-18T17:50:51;19.33;;;9.07;;
11957;SDS011;6039;52.576;13.348;2022-12-18T17:55:55;19.07;;;7.50;;
11957;SDS011;6039;52.576;13.348;2022-12-18T18:01:00;15.93;;;7.27;;
11957;SDS011;6039;52.576;13.348;2022-12-18T18:06:07;17.13;;;7.67;;
11957;SDS011;6039;52.576;13.348;2022-12-18T18:11:12;21.43;;;8.50;;
11957;SDS011;6039;52.576;13.348;2022-12-18T18:16:31;14.83;;;7.47;;
11957;SDS011;6039;52.576;13.348;2022-12-18T18:21:39;19.13;;;8.83;;
11957;SDS011;6039;52.576;13.348;2022-12-18T18:26:45;21.53;;;8.10;;
11957;SDS011;6039;52.576;13.348;2022-12-18T18:31:49;23.47;;;8.63;;
11957;SDS011;6039;52.576;13.348;2022-12-18T18:36:58;17.83;;;7.03;;
11957;SDS011;6039;52.576;13.348;2022-12-18T18:42:02;18.73;;;8.47;;
11957;SDS011;6039;52.576;13.348;2022-12-18T18:47:07;14.57;;;7.90;;
11957;SDS011;6039;52.576;13.348;2022-12-18T18:52:13;24.13;;;7.67;;
11957;SDS011;6039;52.576;13.348;2022-12-18T18:57:17;15.87;;;8.27;;
11957;SDS011;6039;52.576;13.348;2022-12-18T19:02:21;24.73;;;9.30;;
11957;SDS011;6039;52.576;13.348;2022-12-18T19:07:28;20.00;;;8.37;;
11957;SDS011;6039;52.576;13.348;2022-12-18T19:12:32;19.20;;;8.30;;
11957;SDS011;6039;52.576;13.348;2022-12-18T19:17:49;20.23;;;9.43;;
11957;SDS011;6039;52.576;13.348;2022-12-18T19:22:56;20.23;;;9.30;;
11957;SDS011;6039;52.576;13.348;2022-12-18T19:28:00;19.70;;;9.07;;
11957;SDS011;6039;52.576;13.348;2022-12-18T19:33:05;18.63;;;8.10;;
11957;SDS011;6039;52.576;13.348;2022-12-18T19:38:11;19.73;;;8.60;;
11957;SDS011;6039;52.576;13.348;2022-12-18T19:43:15;19.47;;;8.33;;
11957;SDS011;6039;52.576;13.348;2022-12-18T19:48:19;16.27;;;8.30;;
11957;SDS011;6039;52.576;13.348;2022-12-18T19:53:26;17.50;;;7.90;;
11957;SDS011;6039;52.576;13.348;2022-12-18T19:58:30;24.90;;;9.77;;
11957;SDS011;6039;52.576;13.348;2022-12-18T20:03:34;16.43;;;8.07;;
11957;SDS011;6039;52.576;13.348;2022-12-18T20:08:41;17.17;;;8.27;;
11957;SDS011;6039;52.576;13.348;2022-12-18T20:13:46;17.60;;;8.00;;
11957;SDS011;6039;52.576;13.348;2022-12-18T20:18:50;21.10;;;8.60;;
11957;SDS011;6039;52.576;13.348;2022-12-18T20:24:00;13.53;;;7.37;;
11957;SDS011;6039;52.576;13.348;2022-12-18T20:29:04;14.90;;;7.03;;
11957;SDS011;6039;52.576;13.348;2022-12-18T20:34:09;16.23;;;7.43;;
11957;SDS011;6039;52.576;13.348;2022-12-18T20:39:16;18.67;;;7.97;;
11957;SDS011;6039;52.576;13.348;2022-12-18T20:44:21;20.23;;;8.10;;
11957;SDS011;6039;52.576;13.348;2022-12-18T20:49:26;17.73;;;8.10;;
11957;SDS011;6039;52.576;13.348;2022-12-18T20:54:32;15.27;;;7.57;;
11957;SDS011;6039;52.576;13.348;2022-12-18T20:59:36;20.03;;;8.00;;
11957;SDS011;6039;52.576;13.348;2022-12-18T21:04:43;23.50;;;9.27;;
11957;SDS011;6039;52.576;13.348;2022-12-18T21:09:49;24.93;;;8.43;;
11957;SDS011;6039;52.576;13.348;2022-12-18T21:14:53;15.57;;;7.20;;
11957;SDS011;6039;52.576;13.348;2022-12-18T21:19:58;19.53;;;7.83;;
11957;SDS011;6039;52.576;13.348;2022-12-18T21:25:05;15.23;;;7.43;;
11957;SDS011;6039;52.576;13.348;2022-12-18T21:30:10;26.07;;;8.70;;
11957;SDS011;6039;52.576;13.348;2022-12-18T21:35:14;13.00;;;6.90;;
11957;SDS011;6039;52.576;13.348;2022-12-18T21:40:21;19.53;;;7.63;;
11957;SDS011;6039;52.576;13.348;2022-12-18T21:45:26;16.70;;;7.73;;
11957;SDS011;6039;52.576;13.348;2022-12-18T21:50:33;20.50;;;8.40;;
11957;SDS011;6039;52.576;13.348;2022-12-18T21:55:40;23.20;;;8.23;;
11957;SDS011;6039;52.576;13.348;2022-12-18T22:00:44;16.80;;;7.43;;
11957;SDS011;6039;52.576;13.348;2022-12-18T22:05:48;13.83;;;6.50;;
11957;SDS011;6039;52.576;13.348;2022-12-18T22:10:54;20.37;;;7.53;;
11957;SDS011;6039;52.576;13.348;2022-12-18T22:15:58;15.07;;;6.93;;
11957;SDS011;6039;52.576;13.348;2022-12-18T22:21:03;12.70;;;6.13;;
11957;SDS011;6039;52.576;13.348;2022-12-18T22:26:11;16.10;;;7.57;;
11957;SDS011;6039;52.576;13.348;2022-12-18T22:31:15;16.63;;;5.90;;
11957;SDS011;6039;52.576;13.348;2022-12-18T22:36:19;15.00;;;7.03;;
11957;SDS011;6039;52.576;13.348;2022-12-18T22:41:26;22.17;;;7.83;;
11957;SDS011;6039;52.576;13.348;2022-12-18T22:46:31;21.53;;;8.53;;
11957;SDS011;6039;52.576;13.348;2022-12-18T22:51:37;20.40;;;6.97;;
11957;SDS011;6039;52.576;13.348;2022-12-18T22:56:43;17.63;;;6.50;;
11957;SDS011;6039;52.576;13.348;2022-12-18T23:01:47;14.00;;;5.90;;
11957;SDS011;6039;52.576;13.348;2022-12-18T23:06:52;15.70;;;7.73;;
11957;SDS011;6039;52.576;13.348;2022-12-18T23:11:59;13.97;;;6.20;;
11957;SDS011;6039;52.576;13.348;2022-12-18T23:17:03;13.17;;;5.50;;
11957;SDS011;6039;52.576;13.348;2022-12-18T23:22:07;14.73;;;5.87;;
11957;SDS011;6039;52.576;13.348;2022-12-18T23:27:14;16.07;;;6.67;;
11957;SDS011;6039;52.576;13.348;2022-12-18T23:32:18;14.40;;;6.67;;
11957;SDS011;6039;52.576;13.348;2022-12-18T23:37:22;11.37;;;5.27;;
11957;SDS011;6039;52.576;13.348;2022-12-18T23:42:28;12.37;;;5.87;;
11957;SDS011;6039;52.576;13.348;2022-12-18T23:47:32;10.27;;;5.80;;
11957;SDS011;6039;52.576;13.348;2022-12-18T23:52:36;16.50;;;6.10;;
11957;SDS011;6039;52.576;13.348;2022-12-18T23:57:43;15.87;;;6.27;;
